createdAt,value
2023-04-20T00:02:08.721Z,20.10
2023-04-20T00:04:36.612Z,20.48
2023-04-20T00:07:04.531Z,19.67
2023-04-20T00:09:32.149Z,21.10
2023-04-20T00:11:59.797Z,20.38
2023-04-20T00:14:27.478Z,20.33
2023-04-20T00:16:55.304Z,20.38
2023-04-20T00:19:23.173Z,19.42
2023-04-20T00:21:50.863Z,17.90
2023-04-20T00:24:18.420Z,17.88
2023-04-20T00:26:46.166Z,16.83
2023-04-20T00:29:13.898Z,15.15
2023-04-20T00:31:41.491Z,15.13
2023-04-20T00:34:09.176Z,14.52
2023-04-20T00:36:36.809Z,13.90
2023-04-20T00:39:05.804Z,12.90
2023-04-20T00:41:33.410Z,12.90
2023-04-20T00:44:01.501Z,12.68
2023-04-20T00:46:29.217Z,13.00
2023-04-20T00:48:58.422Z,13.05
2023-04-20T00:51:28.589Z,12.68
2023-04-20T00:53:56.860Z,13.13
2023-04-20T00:56:26.690Z,13.35
2023-04-20T00:58:54.324Z,13.80
2023-04-20T01:01:21.911Z,13.32
2023-04-20T01:03:49.703Z,13.80
2023-04-20T01:06:18.303Z,12.70
2023-04-20T01:08:49.905Z,12.57
2023-04-20T01:11:18.143Z,12.43
2023-04-20T01:13:45.880Z,13.25
2023-04-20T01:16:13.817Z,12.20
2023-04-20T01:18:48.460Z,12.35
2023-04-20T01:21:17.426Z,13.30
2023-04-20T01:23:45.975Z,13.80
2023-04-20T01:26:15.059Z,12.63
2023-04-20T01:28:43.232Z,12.75
2023-04-20T01:31:11.479Z,12.32
2023-04-20T01:33:39.418Z,11.88
2023-04-20T01:36:07.708Z,13.15
2023-04-20T01:38:35.494Z,11.85
2023-04-20T01:41:04.521Z,12.45
2023-04-20T01:43:32.593Z,12.10
2023-04-20T01:46:00.727Z,11.18
2023-04-20T01:48:33.755Z,11.52
2023-04-20T01:51:01.478Z,11.25
2023-04-20T01:53:29.201Z,10.80
2023-04-20T01:55:56.784Z,11.02
2023-04-20T01:58:24.891Z,10.75
2023-04-20T02:00:52.524Z,10.63
2023-04-20T02:03:20.557Z,11.00
2023-04-20T02:05:48.277Z,10.77
2023-04-20T02:08:15.893Z,10.38
2023-04-20T02:10:43.481Z,10.48
2023-04-20T02:13:11.584Z,9.07
2023-04-20T02:15:39.435Z,9.60
2023-04-20T02:18:07.076Z,8.85
2023-04-20T02:20:34.662Z,9.00
2023-04-20T02:23:02.365Z,7.63
2023-04-20T02:25:30.034Z,7.43
2023-04-20T02:27:57.681Z,7.38
2023-04-20T02:30:25.428Z,7.70
2023-04-20T02:32:53.204Z,7.40
2023-04-20T02:35:20.983Z,7.10
2023-04-20T02:37:48.592Z,7.05
2023-04-20T02:40:16.354Z,5.38
2023-04-20T02:42:43.964Z,5.50
2023-04-20T02:45:12.952Z,5.03
2023-04-20T02:47:43.480Z,5.00
2023-04-20T02:50:13.274Z,5.28
2023-04-20T02:52:58.829Z,5.10
2023-04-20T02:55:27.179Z,5.68
2023-04-20T02:57:57.687Z,5.43
2023-04-20T03:00:38.702Z,5.07
2023-04-20T03:03:08.991Z,5.15
2023-04-20T03:05:36.751Z,5.03
2023-04-20T03:08:06.866Z,4.97
2023-04-20T03:10:34.454Z,5.07
2023-04-20T03:13:14.129Z,4.85
2023-04-20T03:16:02.090Z,5.50
2023-04-20T03:18:34.958Z,5.78
2023-04-20T03:21:02.585Z,5.97
2023-04-20T03:23:32.350Z,6.07
2023-04-20T03:26:01.823Z,6.00
2023-04-20T03:28:38.531Z,6.63
2023-04-20T03:31:06.990Z,6.90
2023-04-20T03:33:34.988Z,7.13
2023-04-20T03:36:05.796Z,7.85
2023-04-20T03:38:33.549Z,7.40
2023-04-20T03:41:01.113Z,8.13
2023-04-20T03:43:29.206Z,8.50
2023-04-20T03:45:56.813Z,8.02
2023-04-20T03:48:24.527Z,8.05
2023-04-20T03:50:53.178Z,8.57
2023-04-20T03:53:20.804Z,9.32
2023-04-20T03:55:48.536Z,9.68
2023-04-20T03:58:21.637Z,9.15
2023-04-20T04:01:03.352Z,8.70
2023-04-20T04:03:32.242Z,8.98
2023-04-20T04:05:59.954Z,9.13
2023-04-20T04:08:27.865Z,9.70
2023-04-20T04:10:55.989Z,8.75
2023-04-20T04:13:23.575Z,8.02
2023-04-20T04:15:51.159Z,6.32
2023-04-20T04:18:18.893Z,6.05
2023-04-20T04:20:47.349Z,5.63
2023-04-20T04:23:16.304Z,6.10
2023-04-20T04:25:49.695Z,6.38
2023-04-20T04:28:21.701Z,6.47
2023-04-20T04:31:12.179Z,5.88
2023-04-20T04:33:40.811Z,9.88
2023-04-20T04:36:09.164Z,6.53
2023-04-20T04:38:36.927Z,7.30
2023-04-20T04:41:04.482Z,6.45
2023-04-20T04:43:33.524Z,6.05
2023-04-20T04:46:13.259Z,5.82
2023-04-20T04:48:42.334Z,7.32
2023-04-20T04:51:10.766Z,6.95
2023-04-20T04:53:38.499Z,7.28
2023-04-20T04:56:06.812Z,7.93
2023-04-20T04:58:34.622Z,7.70
2023-04-20T05:01:02.193Z,7.55
2023-04-20T05:03:30.044Z,7.75
2023-04-20T05:05:57.665Z,7.20
2023-04-20T05:08:25.347Z,6.97
2023-04-20T05:10:52.982Z,7.28
2023-04-20T05:13:21.070Z,7.32
2023-04-20T05:15:48.582Z,7.38
2023-04-20T05:18:16.736Z,7.10
2023-04-20T05:20:44.298Z,7.47
2023-04-20T05:23:12.087Z,7.28
2023-04-20T05:25:39.748Z,7.28
2023-04-20T05:28:07.393Z,7.15
2023-04-20T05:30:34.945Z,7.35
2023-04-20T05:33:02.508Z,7.32
2023-04-20T05:35:30.652Z,6.90
2023-04-20T05:38:00.364Z,7.07
2023-04-20T05:40:27.922Z,6.45
2023-04-20T05:42:55.600Z,6.90
2023-04-20T05:45:23.333Z,5.93
2023-04-20T05:47:54.663Z,6.97
2023-04-20T05:50:23.504Z,7.05
2023-04-20T05:52:51.749Z,5.90
2023-04-20T05:55:22.090Z,6.55
2023-04-20T05:57:51.759Z,6.80
2023-04-20T06:00:20.121Z,6.38
2023-04-20T06:02:48.292Z,6.28
2023-04-20T06:05:16.316Z,6.43
2023-04-20T06:07:43.976Z,6.82
2023-04-20T06:10:12.094Z,6.30
2023-04-20T06:12:39.767Z,5.20
2023-04-20T06:15:09.841Z,5.18
2023-04-20T06:17:41.127Z,5.15
2023-04-20T06:20:09.899Z,4.93
2023-04-20T06:22:38.020Z,5.07
2023-04-20T06:25:05.828Z,4.70
2023-04-20T06:27:33.372Z,5.22
2023-04-20T06:30:00.905Z,5.70
2023-04-20T06:32:28.565Z,5.93
2023-04-20T06:34:56.180Z,5.20
2023-04-20T06:37:23.947Z,5.18
2023-04-20T06:39:54.965Z,5.00
2023-04-20T06:42:23.573Z,5.55
2023-04-20T06:44:51.324Z,4.60
2023-04-20T06:47:19.094Z,4.93
2023-04-20T06:49:46.685Z,5.03
2023-04-20T06:52:14.444Z,4.55
2023-04-20T06:54:42.061Z,5.25
2023-04-20T06:57:09.706Z,5.97
2023-04-20T06:59:37.236Z,5.70
2023-04-20T07:02:05.002Z,6.28
2023-04-20T07:04:32.645Z,6.45
2023-04-20T07:07:00.286Z,7.15
2023-04-20T07:09:28.157Z,6.95
2023-04-20T07:11:56.378Z,6.78
2023-04-20T07:14:23.941Z,6.80
2023-04-20T07:16:55.313Z,6.70
2023-04-20T07:19:23.315Z,6.45
2023-04-20T07:21:51.166Z,6.80
2023-04-20T07:24:18.802Z,6.88
2023-04-20T07:26:46.529Z,7.35
2023-04-20T07:29:14.174Z,7.45
2023-04-20T07:31:41.724Z,7.70
2023-04-20T07:34:09.801Z,6.95
2023-04-20T07:36:39.014Z,6.93
2023-04-20T07:39:07.132Z,6.90
2023-04-20T07:41:34.773Z,6.60
2023-04-20T07:44:02.359Z,6.65
2023-04-20T07:46:30.070Z,6.22
2023-04-20T07:48:57.754Z,6.50
2023-04-20T07:51:26.364Z,6.88
2023-04-20T07:53:54.030Z,6.75
2023-04-20T07:56:21.567Z,7.03
2023-04-20T07:58:49.108Z,7.25
2023-04-20T08:01:16.894Z,6.35
2023-04-20T08:03:45.291Z,6.95
2023-04-20T08:06:13.475Z,7.15
2023-04-20T08:08:41.400Z,6.43
2023-04-20T08:11:09.026Z,7.07
2023-04-20T08:13:37.280Z,7.10
2023-04-20T08:16:05.387Z,7.15
2023-04-20T08:18:32.960Z,6.68
2023-04-20T08:21:00.537Z,7.43
2023-04-20T08:23:28.601Z,6.90
2023-04-20T08:25:56.152Z,6.60
2023-04-20T08:28:33.441Z,7.05
2023-04-20T08:31:02.387Z,7.22
2023-04-20T08:33:30.165Z,6.25
2023-04-20T08:35:57.798Z,5.93
2023-04-20T08:38:33.884Z,6.40
2023-04-20T08:41:02.135Z,6.15
2023-04-20T08:43:30.097Z,6.68
2023-04-20T08:46:04.274Z,6.15
2023-04-20T08:48:35.823Z,5.82
2023-04-20T08:51:04.511Z,5.53
2023-04-20T08:53:32.520Z,5.13
2023-04-20T08:56:00.579Z,5.25
2023-04-20T08:58:32.315Z,5.50
2023-04-20T09:01:02.936Z,5.75
2023-04-20T09:03:37.812Z,6.07
2023-04-20T09:06:12.356Z,5.40
2023-04-20T09:08:41.015Z,5.18
2023-04-20T09:11:21.327Z,5.72
2023-04-20T09:14:01.274Z,5.20
2023-04-20T09:16:29.700Z,5.35
2023-04-20T09:18:57.785Z,4.78
2023-04-20T09:21:26.580Z,5.60
2023-04-20T09:24:01.927Z,4.63
2023-04-20T09:26:33.271Z,5.57
2023-04-20T09:29:01.418Z,5.30
2023-04-20T09:31:29.031Z,5.47
2023-04-20T09:34:03.766Z,6.15
2023-04-20T09:36:44.370Z,5.82
2023-04-20T09:39:17.128Z,6.63
2023-04-20T09:41:45.277Z,6.30
2023-04-20T09:44:13.489Z,6.43
2023-04-20T09:46:41.993Z,6.28
2023-04-20T09:49:13.898Z,7.55
2023-04-20T09:51:44.986Z,6.70
2023-04-20T09:54:13.111Z,6.80
2023-04-20T09:56:41.085Z,7.10
2023-04-20T09:59:09.146Z,7.20
2023-04-20T10:01:38.195Z,6.88
2023-04-20T10:04:10.885Z,6.20
2023-04-20T10:06:38.959Z,6.38
2023-04-20T10:09:08.134Z,6.82
2023-04-20T10:11:52.461Z,6.38
2023-04-20T10:14:25.873Z,5.88
2023-04-20T10:17:01.113Z,5.82
2023-04-20T10:19:41.589Z,5.90
2023-04-20T10:22:10.314Z,5.90
2023-04-20T10:24:38.303Z,5.05
2023-04-20T10:27:16.836Z,5.50
2023-04-20T10:29:44.452Z,5.38
2023-04-20T10:32:22.993Z,5.38
2023-04-20T10:35:00.752Z,5.65
2023-04-20T10:37:29.208Z,5.57
2023-04-20T10:39:56.885Z,5.82
2023-04-20T10:42:26.276Z,6.03
2023-04-20T10:44:54.883Z,6.03
2023-04-20T10:47:29.677Z,6.03
2023-04-20T10:50:13.580Z,5.57
2023-04-20T10:52:43.546Z,5.47
2023-04-20T10:55:25.419Z,6.20
2023-04-20T10:57:54.016Z,5.80
2023-04-20T11:00:23.713Z,5.68
2023-04-20T11:02:52.452Z,6.30
2023-04-20T11:05:23.660Z,5.57
2023-04-20T11:07:53.454Z,5.18
2023-04-20T11:10:24.752Z,5.10
2023-04-20T11:12:53.118Z,5.40
2023-04-20T11:15:31.506Z,5.60
2023-04-20T11:18:07.598Z,5.22
2023-04-20T11:20:36.205Z,5.57
2023-04-20T11:23:05.756Z,5.15
2023-04-20T11:25:33.470Z,5.05
2023-04-20T11:28:10.089Z,5.05
2023-04-20T11:30:41.538Z,5.50
2023-04-20T11:33:09.741Z,5.07
2023-04-20T11:35:38.545Z,5.10
2023-04-20T11:38:06.559Z,5.88
2023-04-20T11:40:34.602Z,5.28
2023-04-20T11:43:04.344Z,5.07
2023-04-20T11:45:36.349Z,5.40
2023-04-20T11:48:06.032Z,5.03
2023-04-20T11:50:33.758Z,4.63
2023-04-20T11:53:02.194Z,4.38
2023-04-20T11:55:29.786Z,4.10
2023-04-20T11:57:57.397Z,4.30
2023-04-20T12:00:25.061Z,4.00
2023-04-20T12:02:52.928Z,4.00
2023-04-20T12:05:20.877Z,5.10
2023-04-20T12:07:48.825Z,4.63
2023-04-20T12:10:16.403Z,5.10
2023-04-20T12:12:44.012Z,4.70
2023-04-20T12:15:12.529Z,5.35
2023-04-20T12:17:40.276Z,4.93
2023-04-20T12:20:08.687Z,5.57
2023-04-20T12:22:36.373Z,5.90
2023-04-20T12:25:04.277Z,5.57
2023-04-20T12:27:32.132Z,4.97
2023-04-20T12:29:59.769Z,5.80
2023-04-20T12:32:27.530Z,5.07
2023-04-20T12:34:55.910Z,5.75
2023-04-20T12:37:23.630Z,5.78
2023-04-20T12:39:51.282Z,5.43
2023-04-20T12:42:18.868Z,5.50
2023-04-20T12:44:46.653Z,5.40
2023-04-20T12:47:14.311Z,5.57
2023-04-20T12:49:41.956Z,6.18
2023-04-20T12:52:09.554Z,5.72
2023-04-20T12:54:37.217Z,6.05
2023-04-20T12:57:05.018Z,5.55
2023-04-20T12:59:38.726Z,5.88
2023-04-20T13:02:07.073Z,5.80
2023-04-20T13:04:36.266Z,6.15
2023-04-20T13:07:03.983Z,6.55
2023-04-20T13:09:31.638Z,6.38
2023-04-20T13:11:59.204Z,5.97
2023-04-20T13:14:27.002Z,5.75
2023-04-20T13:16:55.514Z,6.30
2023-04-20T13:19:23.663Z,5.82
2023-04-20T13:21:51.213Z,6.13
2023-04-20T13:24:19.069Z,5.78
2023-04-20T13:26:46.772Z,6.57
2023-04-20T13:29:14.377Z,5.97
2023-04-20T13:31:41.982Z,6.43
2023-04-20T13:34:09.590Z,6.43
2023-04-20T13:36:37.124Z,7.32
2023-04-20T13:39:04.755Z,7.30
2023-04-20T13:41:32.300Z,7.90
2023-04-20T13:44:01.374Z,8.13
2023-04-20T13:46:29.290Z,8.73
2023-04-20T13:48:57.028Z,8.60
2023-04-20T13:51:24.643Z,9.13
2023-04-20T13:53:52.225Z,9.38
2023-04-20T13:56:19.869Z,8.48
2023-04-20T13:58:47.628Z,9.18
2023-04-20T14:01:16.481Z,9.63
2023-04-20T14:03:44.700Z,10.00
2023-04-20T14:06:12.433Z,10.02
2023-04-20T14:08:40.142Z,9.77
2023-04-20T14:11:08.818Z,9.82
2023-04-20T14:13:37.373Z,10.40
2023-04-20T14:16:11.810Z,10.57
2023-04-20T14:18:39.508Z,10.85
2023-04-20T14:21:07.272Z,11.02
2023-04-20T14:23:34.878Z,11.43
2023-04-20T14:26:03.860Z,10.43
2023-04-20T14:28:33.391Z,11.98
2023-04-20T14:31:02.395Z,11.15
2023-04-20T14:33:30.283Z,11.55
2023-04-20T14:35:57.845Z,10.93
2023-04-20T14:38:25.858Z,11.13
2023-04-20T14:40:53.773Z,10.50
2023-04-20T14:43:21.941Z,11.63
2023-04-20T14:45:51.077Z,11.80
2023-04-20T14:48:18.730Z,11.73
2023-04-20T14:50:46.328Z,11.90
2023-04-20T14:53:14.479Z,11.55
2023-04-20T14:55:42.076Z,12.23
2023-04-20T14:58:09.813Z,11.80
2023-04-20T15:00:37.481Z,11.70
2023-04-20T15:03:05.370Z,12.27
2023-04-20T15:05:33.358Z,11.48
2023-04-20T15:08:01.265Z,12.48
2023-04-20T15:10:28.886Z,12.00
2023-04-20T15:12:56.544Z,11.85
2023-04-20T15:15:25.451Z,11.45
2023-04-20T15:17:55.879Z,11.98
2023-04-20T15:20:23.566Z,11.68
2023-04-20T15:22:51.298Z,12.82
2023-04-20T15:25:18.868Z,12.27
2023-04-20T15:27:46.485Z,11.80
2023-04-20T15:30:14.823Z,11.38
2023-04-20T15:32:42.470Z,11.15
2023-04-20T15:35:10.204Z,11.05
2023-04-20T15:37:38.349Z,11.88
2023-04-20T15:40:06.633Z,11.38
2023-04-20T15:42:34.243Z,10.90
2023-04-20T15:45:01.848Z,11.73
2023-04-20T15:47:29.419Z,12.20
2023-04-20T15:50:01.334Z,11.65
2023-04-20T15:52:29.818Z,11.70
2023-04-20T15:54:57.538Z,12.52
2023-04-20T15:57:25.170Z,12.05
2023-04-20T15:59:52.822Z,12.82
2023-04-20T16:02:20.473Z,11.73
2023-04-20T16:04:48.269Z,11.77
2023-04-20T16:07:16.298Z,11.85
2023-04-20T16:09:43.896Z,11.73
2023-04-20T16:12:11.542Z,11.48
2023-04-20T16:14:39.308Z,12.15
2023-04-20T16:17:07.088Z,12.82
2023-04-20T16:19:35.647Z,11.77
2023-04-20T16:22:03.633Z,11.93
2023-04-20T16:24:31.661Z,11.88
2023-04-20T16:27:01.911Z,11.25
2023-04-20T16:29:31.131Z,11.90
2023-04-20T16:31:58.893Z,11.90
2023-04-20T16:34:29.329Z,12.00
2023-04-20T16:39:26.236Z,11.40
2023-04-20T16:41:57.052Z,12.18
2023-04-20T16:44:24.795Z,12.73
2023-04-20T16:46:52.558Z,11.73
2023-04-20T16:49:20.306Z,12.50
2023-04-20T16:51:48.065Z,13.13
2023-04-20T16:54:15.913Z,13.02
2023-04-20T16:56:43.607Z,12.70
2023-04-20T16:59:11.153Z,13.52
2023-04-20T17:01:38.843Z,13.75
2023-04-20T17:04:06.572Z,13.80
2023-04-20T17:06:34.347Z,14.15
2023-04-20T17:09:06.713Z,11.90
2023-04-20T17:11:35.910Z,13.60
2023-04-20T17:14:03.518Z,13.43
2023-04-20T17:16:31.202Z,13.70
2023-04-20T17:18:58.828Z,13.65
2023-04-20T17:21:27.651Z,13.90
2023-04-20T17:23:55.842Z,14.15
2023-04-20T17:26:23.531Z,13.48
2023-04-20T17:28:51.114Z,13.48
2023-04-20T17:31:18.758Z,13.95
2023-04-20T17:33:46.301Z,13.57
2023-04-20T17:36:13.880Z,14.38
2023-04-20T17:38:43.702Z,14.10
2023-04-20T17:41:11.469Z,13.38
2023-04-20T17:43:40.535Z,13.75
2023-04-20T17:46:08.297Z,14.35
2023-04-20T17:48:36.900Z,14.55
2023-04-20T17:51:04.634Z,14.32
2023-04-20T17:53:32.252Z,15.10
2023-04-20T17:55:59.852Z,15.00
2023-04-20T17:58:27.406Z,14.93
2023-04-20T18:00:55.024Z,14.85
2023-04-20T18:03:22.790Z,15.05
2023-04-20T18:05:51.694Z,15.05
2023-04-20T18:08:21.019Z,14.13
2023-04-20T18:10:48.620Z,14.73
2023-04-20T18:13:16.221Z,14.57
2023-04-20T18:15:43.928Z,14.50
2023-04-20T18:18:11.940Z,14.80
2023-04-20T18:20:40.442Z,15.07
2023-04-20T18:23:08.119Z,15.73
2023-04-20T18:25:35.795Z,14.82
2023-04-20T18:28:03.372Z,14.13
2023-04-20T18:30:30.956Z,14.65
2023-04-20T18:32:58.759Z,14.52
2023-04-20T18:35:26.734Z,13.48
2023-04-20T18:37:55.095Z,14.15
2023-04-20T18:40:22.713Z,13.38
2023-04-20T18:42:50.361Z,14.73
2023-04-20T18:45:17.985Z,14.88
2023-04-20T18:47:45.921Z,13.32
2023-04-20T18:50:13.502Z,14.13
2023-04-20T18:52:41.105Z,13.50
2023-04-20T18:55:09.212Z,14.25
2023-04-20T18:57:36.841Z,14.40
2023-04-20T19:00:07.989Z,13.48
2023-04-20T19:02:35.979Z,14.30
2023-04-20T19:05:03.863Z,13.98
2023-04-20T19:07:31.508Z,12.68
2023-04-20T19:09:59.068Z,14.13
2023-04-20T19:12:27.790Z,13.82
2023-04-20T19:14:55.356Z,14.48
2023-04-20T19:17:22.933Z,13.75
2023-04-20T19:19:50.962Z,13.98
2023-04-20T19:22:18.554Z,14.07
2023-04-20T19:24:46.583Z,14.50
2023-04-20T19:27:14.280Z,13.48
2023-04-20T19:29:41.898Z,13.98
2023-04-20T19:32:09.672Z,14.38
2023-04-20T19:34:37.479Z,14.85
2023-04-20T19:37:05.104Z,14.60
2023-04-20T19:39:34.676Z,14.65
2023-04-20T19:42:02.506Z,14.32
2023-04-20T19:44:30.212Z,14.35
2023-04-20T19:46:57.777Z,15.05
2023-04-20T19:49:25.611Z,14.63
2023-04-20T19:51:53.253Z,15.45
2023-04-20T19:54:20.879Z,14.57
2023-04-20T19:56:48.829Z,15.07
2023-04-20T19:59:16.593Z,15.98
2023-04-20T20:01:44.368Z,15.75
2023-04-20T20:04:12.222Z,15.25
2023-04-20T20:06:40.300Z,15.73
2023-04-20T20:09:08.461Z,15.50
2023-04-20T20:11:36.088Z,15.15
2023-04-20T20:14:03.763Z,15.55
2023-04-20T20:16:31.342Z,15.18
2023-04-20T20:18:59.670Z,15.73
2023-04-20T20:21:27.266Z,14.85
2023-04-20T20:23:54.955Z,14.68
2023-04-20T20:26:22.548Z,14.55
2023-04-20T20:28:50.166Z,15.35
2023-04-20T20:31:17.881Z,14.45
2023-04-20T20:33:45.625Z,15.10
2023-04-20T20:36:13.193Z,14.73
2023-04-20T20:38:41.171Z,15.32
2023-04-20T20:41:09.226Z,15.25
2023-04-20T20:43:37.375Z,15.25
2023-04-20T20:46:05.040Z,14.82
2023-04-20T20:48:32.699Z,15.77
2023-04-20T20:51:00.354Z,14.82
2023-04-20T20:53:27.919Z,14.55
2023-04-20T20:55:55.584Z,14.35
2023-04-20T20:58:23.167Z,14.68
2023-04-20T21:00:50.913Z,14.38
2023-04-20T21:03:18.901Z,13.82
2023-04-20T21:05:46.556Z,15.10
2023-04-20T21:08:14.236Z,13.60
2023-04-20T21:10:41.800Z,14.27
2023-04-20T21:13:09.507Z,14.68
2023-04-20T21:15:37.144Z,14.30
2023-04-20T21:18:04.848Z,14.77
2023-04-20T21:20:34.272Z,14.88
2023-04-20T21:23:01.936Z,15.07
2023-04-20T21:25:29.493Z,14.13
2023-04-20T21:27:57.140Z,15.20
2023-04-20T21:30:24.733Z,15.88
2023-04-20T21:32:52.310Z,15.77
2023-04-20T21:35:20.039Z,15.90
2023-04-20T21:37:47.589Z,14.15
2023-04-20T21:40:15.240Z,15.40
2023-04-20T21:42:42.812Z,15.98
2023-04-20T21:45:10.767Z,15.50
2023-04-20T21:47:38.358Z,15.30
2023-04-20T21:50:06.219Z,15.77
2023-04-20T21:52:33.824Z,15.77
2023-04-20T21:55:01.403Z,15.88
2023-04-20T21:57:29.019Z,16.17
2023-04-20T21:59:56.568Z,16.30
2023-04-20T22:02:24.373Z,15.70
2023-04-20T22:04:52.401Z,17.05
2023-04-20T22:07:20.786Z,16.27
2023-04-20T22:09:48.827Z,16.02
2023-04-20T22:12:18.104Z,16.20
2023-04-20T22:14:47.205Z,15.95
2023-04-20T22:17:14.791Z,16.70
2023-04-20T22:19:42.573Z,16.55
2023-04-20T22:22:10.132Z,16.13
2023-04-20T22:24:37.750Z,15.52
2023-04-20T22:27:05.442Z,16.75
2023-04-20T22:29:33.066Z,15.82
2023-04-20T22:32:00.689Z,16.55
2023-04-20T22:34:28.225Z,16.98
2023-04-20T22:36:55.891Z,17.05
2023-04-20T22:39:23.449Z,17.33
2023-04-20T22:41:51.105Z,16.33
2023-04-20T22:44:18.656Z,16.92
2023-04-20T22:46:46.836Z,17.83
2023-04-20T22:49:15.242Z,15.93
2023-04-20T22:51:43.407Z,16.23
2023-04-20T22:54:11.135Z,17.00
2023-04-20T22:56:38.791Z,16.75
2023-04-20T22:59:06.392Z,16.27
2023-04-20T23:01:34.032Z,15.70
2023-04-20T23:04:01.701Z,16.60
2023-04-20T23:06:31.449Z,16.00
2023-04-20T23:08:59.905Z,16.20
2023-04-20T23:11:29.135Z,16.45
2023-04-20T23:13:56.726Z,15.77
2023-04-20T23:16:24.381Z,17.00
2023-04-20T23:18:51.951Z,16.08
2023-04-20T23:21:19.506Z,17.40
2023-04-20T23:23:47.068Z,16.65
2023-04-20T23:26:14.607Z,16.52
2023-04-20T23:28:42.209Z,16.27
2023-04-20T23:31:09.740Z,17.45
2023-04-20T23:33:37.319Z,16.90
2023-04-20T23:36:05.185Z,16.58
2023-04-20T23:38:33.824Z,16.40
2023-04-20T23:41:01.354Z,16.63
2023-04-20T23:43:28.977Z,16.17
2023-04-20T23:45:56.532Z,16.27
2023-04-20T23:48:24.092Z,17.13
2023-04-20T23:50:51.846Z,15.93
2023-04-20T23:53:19.413Z,16.73
2023-04-20T23:55:55.157Z,15.05
2023-04-20T23:58:26.638Z,15.65
